Latest Weather Observations for Warruwi

IDD60801

Issued at 6:35 am CST Friday 24 October 2014 (issued every 30 minutes, with the page automatically refreshed every 10 minutes)

About weather observations | Map of weather stations | Latest weather observations for NT | Other Formats
Station Details ID: 014401 Name: WARRUWI AIRPORT Lat: -11.65 Lon: 133.38 Height: 19.2 m
Data from the previous 72 hours. | See also: Recent months at Warruwi
Date/Time
CST
Temp
°C
App
Temp
°C
Dew
Point
Rel
Hum
%
Delta-T
°C
Wind Press
QNH
hPa
Press
MSL
hPa
Rain
since 9 am
mm
Dir
 
Spd
km/h
Gust
km/h
Spd
kts
Gust
kts
24/06:30am 25.9 28.9 22.6 82 2.2 SSE 11 15 6 8 1013.9 1013.7 0.0
24/06:00am 27.0 29.3 22.0 74 3.4 E 13 20 7 11 1013.3 1013.1 0.0
24/05:30am 26.9 29.5 21.9 74 3.3 E 11 19 6 10 1012.7 1012.5 0.0
24/05:00am 26.9 28.7 21.9 74 3.3 E 15 22 8 12 1012.5 1012.3 0.0
24/04:30am 27.1 29.0 22.1 74 3.4 E 15 22 8 12 1012.4 1012.2 0.0
24/04:00am 27.1 29.0 22.1 74 3.4 E 15 22 8 12 1012.2 1012.0 0.0
24/03:30am 27.0 28.7 22.4 76 3.1 E 17 28 9 15 1012.3 1012.1 0.0
24/03:00am 26.9 29.0 22.5 77 3.0 E 15 24 8 13 1012.2 1012.0 0.0
24/02:30am 27.1 29.0 22.7 77 3.0 E 17 22 9 12 1012.5 1012.3 0.0
24/02:00am 26.9 29.4 22.5 77 3.0 E 13 22 7 12 1012.9 1012.7 0.0
24/01:30am 26.9 29.3 22.3 76 3.1 ENE 13 20 7 11 1013.0 1012.8 0.0
24/01:00am 26.9 30.4 22.9 79 2.7 ENE 9 19 5 10 1013.4 1013.2 0.0
24/12:30am 26.9 30.6 23.2 80 2.5 ENE 9 17 5 9 1013.9 1013.7 0.0
24/12:00am 27.0 29.7 22.8 78 2.8 ENE 13 20 7 11 1014.1 1013.9 0.0
 
Date/Time
CST
Temp
°C
App
Temp
°C
Dew
Point
Rel
Hum
%
Delta-T
°C
Wind Press
QNH
hPa
Press
MSL
hPa
Rain
since 9 am
mm
Dir
 
Spd
km/h
Gust
km/h
Spd
kts
Gust
kts
23/11:30pm 27.0 29.6 22.6 77 3.0 ENE 13 22 7 12 1014.2 1014.0 0.0
23/11:00pm 27.2 30.2 22.6 76 3.1 ENE 11 20 6 11 1014.5 1014.3 0.0
23/10:30pm 27.2 29.7 22.4 75 3.2 ENE 13 20 7 11 1014.5 1014.3 0.0
23/10:00pm 27.1 29.6 22.5 76 3.1 ENE 13 20 7 11 1014.2 1014.0 0.0
23/09:30pm 27.2 29.6 22.2 74 3.4 ENE 13 20 7 11 1013.7 1013.5 0.0
23/09:00pm 27.3 30.1 22.3 74 3.4 ENE 11 20 6 11 1013.4 1013.2 0.0
23/08:30pm 27.3 30.5 21.6 71 3.8 ENE 7 15 4 8 1012.7 1012.5 0.0
23/08:00pm 27.4 30.5 21.4 70 4.0 NE 7 17 4 9 1012.3 1012.1 0.0
23/07:30pm 27.4 30.4 21.2 69 4.1 NE 7 15 4 8 1012.0 1011.8 0.0
23/07:00pm 27.5 30.4 21.8 71 3.8 NE 9 15 5 8 1011.8 1011.6 0.0
23/06:30pm 27.8 30.1 21.3 67 4.3 NE 11 19 6 10 1011.5 1011.3 0.0
23/06:00pm 28.3 30.3 20.8 63 5.0 NE 11 24 6 13 1011.1 1010.9 0.0
23/05:30pm 28.4 29.9 21.2 65 4.8 NE 15 24 8 13 1010.9 1010.7 0.0
23/05:00pm 29.2 30.1 20.1 58 6.0 NE 15 26 8 14 1010.5 1010.3 0.0
23/04:30pm 30.1 31.3 20.6 56 6.3 NE 15 26 8 14 1010.4 1010.2 0.0
23/04:00pm 30.4 31.3 20.0 53 6.9 NE 15 26 8 14 1010.6 1010.4 0.0
23/03:30pm 30.5 31.0 19.2 51 7.4 NE 15 24 8 13 1010.8 1010.6 0.0
23/03:00pm 30.8 31.3 19.2 50 7.6 NE 15 28 8 15 1011.1 1010.9 0.0
23/02:30pm 31.4 32.1 19.7 49 7.7 ENE 15 24 8 13 1011.3 1011.1 0.0
23/02:00pm 30.8 31.0 20.1 53 7.1 ENE 19 28 10 15 1011.7 1011.5 0.0
23/01:30pm 31.2 32.4 21.4 56 6.6 E 17 26 9 14 1012.3 1012.1 0.0
23/01:00pm 30.5 31.3 21.3 58 6.2 E 19 30 10 16 1012.8 1012.6 0.0
23/12:30pm 29.7 30.5 21.4 61 5.6 ENE 19 30 10 16 1013.3 1013.1 0.0
23/12:00pm 30.4 31.4 21.8 60 5.8 E 19 30 10 16 1013.9 1013.7 0.0
23/11:30am 30.0 31.1 21.9 62 5.5 E 19 28 10 15 1014.2 1014.0 0.0
23/11:00am 29.4 30.3 21.6 63 5.2 E 19 28 10 15 1014.4 1014.2 0.0
23/10:30am 29.3 29.7 20.7 59 5.7 E 19 24 10 13 1014.5 1014.3 0.0
23/10:00am 29.5 30.3 20.6 58 5.9 ESE 17 22 9 12 1014.9 1014.7 0.0
23/09:30am 28.8 30.9 22.5 68 4.3 ESE 15 24 8 13 1014.9 1014.7 0.0
23/09:00am 28.6 30.7 23.1 72 3.8 ESE 17 24 9 13 1015.0 1014.8 0.0
23/08:30am 27.4 29.3 22.1 73 3.6 SE 15 20 8 11 1015.0 1014.8 0.0
23/08:00am 27.1 29.7 22.7 77 3.0 SE 13 17 7 9 1014.8 1014.6 0.0
23/07:30am 26.3 29.6 22.6 80 2.5 SSE 9 13 5 7 1014.5 1014.3 0.0
23/07:00am 25.9 29.7 22.8 83 2.1 SSE 7 13 4 7 1014.2 1014.0 0.0
23/06:30am 26.8 28.6 21.8 74 3.3 E 15 20 8 11 1013.8 1013.6 0.0
23/06:00am 26.7 28.5 21.9 75 3.2 E 15 20 8 11 1013.5 1013.3 0.0
23/05:30am 26.7 28.4 21.7 74 3.3 E 15 24 8 13 1013.1 1012.9 0.0
23/05:00am 26.8 28.6 21.8 74 3.3 E 15 26 8 14 1012.8 1012.6 0.0
23/04:30am 26.9 28.1 21.4 72 3.7 E 17 26 9 14 1012.5 1012.3 0.0
23/04:00am 26.9 28.3 21.9 74 3.3 E 17 24 9 13 1012.6 1012.4 0.0
23/03:30am 26.9 28.8 22.1 75 3.2 E 15 24 8 13 1012.5 1012.3 0.0
23/03:00am 26.9 28.7 21.9 74 3.4 E 15 22 8 12 1012.5 1012.3 0.0
23/02:30am 27.1 29.2 22.5 76 3.1 ENE 15 24 8 13 1012.7 1012.5 0.0
23/02:00am 27.1 29.1 22.3 75 3.2 E 15 26 8 14 1013.2 1013.0 0.0
23/01:30am 27.2 28.9 22.4 75 3.2 E 17 28 9 15 1013.6 1013.4 0.0
23/01:00am 27.2 29.3 22.4 75 3.2 E 15 24 8 13 1013.8 1013.6 0.0
23/12:30am 27.1 29.5 22.3 75 3.2 E 13 20 7 11 1014.0 1013.8 0.0
23/12:00am 27.2 29.2 22.2 74 3.4 E 15 22 8 12 1014.2 1014.0 0.0
 
Date/Time
CST
Temp
°C
App
Temp
°C
Dew
Point
Rel
Hum
%
Delta-T
°C
Wind Press
QNH
hPa
Press
MSL
hPa
Rain
since 9 am
mm
Dir
 
Spd
km/h
Gust
km/h
Spd
kts
Gust
kts
22/11:30pm 27.3 28.8 22.0 73 3.6 E 17 28 9 15 1014.2 1014.0 0.0
22/11:00pm 27.4 28.6 21.4 70 4.0 E 17 28 9 15 1014.3 1014.1 0.0
22/10:30pm 27.4 30.0 21.9 72 3.7 E 11 20 6 11 1014.3 1014.1 0.0
22/10:00pm 27.1 30.0 21.8 73 3.5 ENE 9 17 5 9 1014.1 1013.9 0.0
22/09:30pm 27.1 30.6 22.1 74 3.4 ENE 7 13 4 7 1013.8 1013.6 0.0
22/09:00pm 27.0 30.4 22.0 74 3.4 ENE 7 13 4 7 1013.5 1013.3 0.0
22/08:30pm 27.1 30.7 22.3 75 3.2 NE 7 13 4 7 1013.1 1012.9 0.0
22/08:00pm 27.2 31.0 22.4 75 3.2 NE 6 15 3 8 1012.6 1012.4 0.0
22/07:30pm 27.4 31.0 22.4 74 3.4 ENE 7 15 4 8 1012.3 1012.1 0.0
22/07:00pm 27.5 30.5 22.0 72 3.7 NE 9 15 5 8 1011.9 1011.7 0.0
22/06:30pm 27.9 30.9 21.9 70 4.0 NE 9 15 5 8 1011.7 1011.5 0.0
22/06:00pm 28.3 30.1 21.1 65 4.8 ENE 13 19 7 10 1011.4 1011.2 0.0
22/05:30pm 28.8 30.2 20.3 60 5.6 NE 13 22 7 12 1011.3 1011.1 0.0
22/05:00pm 29.5 31.3 21.2 61 5.5 ENE 13 26 7 14 1011.1 1010.9 0.0
22/04:30pm 29.8 30.5 20.4 57 6.2 ENE 17 28 9 15 1011.0 1010.8 0.0
22/04:00pm 30.6 31.8 21.4 58 6.2 ENE 17 28 9 15 1011.2 1011.0 0.0
22/03:30pm 30.3 31.7 21.1 58 6.2 ENE 15 26 8 14 1011.3 1011.1 0.0
22/03:00pm 30.6 31.5 20.8 56 6.5 ENE 17 28 9 15 1011.6 1011.4 0.0
22/02:30pm 31.1 32.2 21.9 58 6.2 E 19 28 10 15 1011.7 1011.5 0.0
22/02:00pm 31.2 32.0 21.4 56 6.6 ENE 19 32 10 17 1012.1 1011.9 0.0
22/01:30pm 31.5 32.6 21.9 56 6.5 ENE 19 28 10 15 1012.7 1012.5 0.0
22/01:00pm 30.7 31.2 20.9 56 6.5 ENE 19 32 10 17 1013.3 1013.1 0.0
22/12:30pm 31.2 32.2 21.7 57 6.4 E 19 28 10 15 1013.7 1013.5 0.0
22/12:00pm 30.0 30.6 21.1 59 5.9 ENE 19 30 10 16 1014.2 1014.0 0.0
22/11:30am 30.7 32.2 22.0 59 5.9 E 17 28 9 15 1014.7 1014.5 0.0
22/11:00am 30.6 32.7 22.5 62 5.5 E 15 20 8 11 1015.2 1015.0 0.0
22/10:30am 29.7 31.8 22.4 65 5.0 ESE 15 20 8 11 1015.5 1015.3 0.0
22/10:00am 30.3 33.1 23.0 65 5.0 E 13 19 7 10 1015.7 1015.5 0.0
22/09:30am 29.8 32.4 23.3 68 4.5 ESE 15 22 8 12 1015.7 1015.5 0.0
22/09:00am 28.7 31.8 22.9 71 4.0 SE 11 19 6 10 1015.6 1015.4 0.0
22/08:30am 28.0 30.4 22.2 70 3.9 SE 13 19 7 10 1015.6 1015.4 0.0
22/08:00am 28.5 31.7 23.0 72 3.8 E 11 15 6 8 1015.2 1015.0 0.0
22/07:30am 27.4 30.5 22.8 76 3.1 E 11 15 6 8 1015.1 1014.9 0.0
22/07:00am 27.2 31.3 23.0 78 2.9 ENE 6 9 3 5 1014.4 1014.2 0.0
22/06:30am 26.5 30.5 22.8 80 2.5 ENE 6 13 3 7 1013.9 1013.7 0.0
22/06:00am 26.3 30.0 22.6 80 2.5 ENE 7 13 4 7 1013.6 1013.4 0.0
22/05:30am 26.5 29.8 22.6 79 2.6 ENE 9 17 5 9 1013.3 1013.1 0.0
22/05:00am 26.5 29.8 22.6 79 2.6 ENE 9 17 5 9 1013.2 1013.0 0.0
22/04:30am 26.6 30.0 22.7 79 2.6 NE 9 15 5 8 1012.8 1012.6 0.0
22/04:00am 26.9 29.5 22.7 78 2.8 ENE 13 22 7 12 1012.9 1012.7 0.0
22/03:30am 26.9 30.0 22.9 79 2.7 ENE 11 19 6 10 1013.0 1012.8 0.0
22/03:00am 27.2 30.1 23.2 79 2.7 E 13 20 7 11 1013.5 1013.3 0.0
22/02:30am 26.9 30.4 22.9 79 2.7 E 9 15 5 8 1013.6 1013.4 0.0
22/02:00am 27.0 30.1 22.8 78 2.8 ENE 11 19 6 10 1013.8 1013.6 0.0
22/01:30am 27.0 29.4 23.0 79 2.7 E 15 22 8 12 1014.1 1013.9 0.0
22/01:00am 26.9 29.8 23.2 80 2.5 E 13 20 7 11 1014.4 1014.2 0.0
22/12:30am 26.8 30.0 23.1 80 2.5 E 11 19 6 10 1014.7 1014.5 0.0
22/12:00am 27.0 29.4 23.0 79 2.7 E 15 26 8 14 1014.8 1014.6 0.0
 
Date/Time
CST
Temp
°C
App
Temp
°C
Dew
Point
Rel
Hum
%
Delta-T
°C
Wind Press
QNH
hPa
Press
MSL
hPa
Rain
since 9 am
mm
Dir
 
Spd
km/h
Gust
km/h
Spd
kts
Gust
kts
21/11:30pm 26.9 30.6 23.2 80 2.5 E 9 19 5 10 1015.0 1014.8 0.0
21/11:00pm 26.8 29.9 22.8 79 2.7 ENE 11 17 6 9 1014.9 1014.7 0.0
21/10:30pm 26.9 30.8 22.9 79 2.7 ENE 7 11 4 6 1015.0 1014.8 0.0
21/10:00pm 26.8 30.7 22.6 78 2.8 ENE 6 11 3 6 1014.8 1014.6 0.0
21/09:30pm 26.8 31.6 22.2 76 3.1 CALM 0 2 0 1 1014.4 1014.2 0.0
21/09:00pm 27.1 30.8 22.3 75 3.2 NE 6 11 3 6 1013.9 1013.7 0.0
21/08:30pm 27.1 30.4 22.5 76 3.1 ENE 9 19 5 10 1013.6 1013.4 0.0
21/08:00pm 27.1 30.4 22.5 76 3.1 ENE 9 19 5 10 1013.3 1013.1 0.0
21/07:30pm 27.2 30.3 22.8 77 3.0 NE 11 19 6 10 1013.1 1012.9 0.0
21/07:00pm 27.3 30.6 22.5 75 3.2 NE 9 15 5 8 1012.9 1012.7 0.0
21/06:30pm 27.6 30.4 22.3 73 3.6 NE 11 19 6 10 1012.7 1012.5 0.0
21/06:00pm 28.3 31.0 22.1 69 4.2 NE 11 22 6 12 1012.5 1012.3 0.0
21/05:30pm 28.6 30.5 22.1 68 4.4 NE 15 26 8 14 1012.3 1012.1 0.0
21/05:00pm 29.0 30.2 21.5 64 5.0 NE 17 26 9 14 1012.2 1012.0 0.0
21/04:30pm 29.6 31.4 21.8 63 5.3 NE 15 24 8 13 1012.1 1011.9 0.0
21/04:00pm 30.1 31.3 20.6 56 6.3 ENE 15 28 8 15 1012.1 1011.9 0.0
21/03:30pm 30.8 30.5 18.2 47 8.1 ENE 17 26 9 14 1012.2 1012.0 0.0
21/03:00pm 31.8 32.8 21.0 52 7.2 ENE 17 28 9 15 1012.5 1012.3 0.0
21/02:30pm 31.2 30.9 19.2 48 7.8 E 19 28 10 15 1012.7 1012.5 0.0
21/02:00pm 30.9 31.5 20.2 53 7.1 ENE 17 28 9 15 1013.2 1013.0 0.0
21/01:30pm 30.4 30.0 18.8 50 7.5 E 19 28 10 15 1013.7 1013.5 0.0
21/01:00pm 30.0 30.5 20.8 57 6.1 E 19 28 10 15 1014.3 1014.1 0.0
21/12:30pm 30.5 31.3 20.7 55 6.5 E 17 26 9 14 1014.8 1014.6 0.0
21/12:00pm 30.2 31.0 20.7 56 6.3 E 17 24 9 13 1015.5 1015.3 0.0
21/11:30am 29.8 30.5 21.2 60 5.7 E 19 24 10 13 1015.8 1015.6 0.0
21/11:00am 29.8 30.3 20.9 59 5.9 E 19 24 10 13 1015.9 1015.7 0.0
21/10:30am 29.7 30.9 21.4 61 5.6 E 17 22 9 12 1016.0 1015.8 0.0
21/10:00am 29.2 30.3 21.2 62 5.3 E 17 22 9 12 1016.1 1015.9 0.0
21/09:30am 28.9 30.1 21.4 64 5.0 E 17 24 9 13 1016.1 1015.9 0.0
21/09:00am 29.1 30.4 21.6 64 5.0 E 17 22 9 12 1015.8 1015.6 0.0
21/08:30am 28.6 30.4 21.1 64 5.0 E 13 20 7 11 1015.8 1015.6 0.0
21/08:00am 28.0 29.4 20.3 63 5.1 E 13 22 7 12 1015.4 1015.2 0.0
21/07:30am 27.8 29.5 20.1 63 5.0 E 11 19 6 10 1015.0 1014.8 0.0
21/07:00am 27.1 29.0 19.7 64 4.8 ENE 9 15 5 8 1014.6 1014.4 0.0

Other Formats:

Comma delimited format used in spreadsheet applications
http://www.bom.gov.au/fwo/IDD60801/IDD60801.94139.axf

JavaScript Object Notation format (JSON) in row-major order
http://www.bom.gov.au/fwo/IDD60801/IDD60801.94139.json